createdAt,value
2017-12-03T00:02:13.264Z,2.25
2017-12-03T00:04:40.820Z,2.27
2017-12-03T00:07:08.448Z,2.24
2017-12-03T00:09:36.791Z,2.32
2017-12-03T00:12:05.180Z,2.39
2017-12-03T00:14:32.731Z,2.23
2017-12-03T00:17:00.332Z,2.21
2017-12-03T00:19:28.716Z,2.39
2017-12-03T00:21:56.274Z,2.36
2017-12-03T00:24:23.833Z,2.23
2017-12-03T00:26:51.392Z,2.13
2017-12-03T00:29:18.955Z,2.34
2017-12-03T00:31:46.615Z,2.22
2017-12-03T00:34:14.175Z,2.34
2017-12-03T00:36:41.732Z,2.33
2017-12-03T00:39:09.331Z,2.19
2017-12-03T00:41:36.887Z,2.29
2017-12-03T00:44:04.482Z,2.14
2017-12-03T00:46:32.043Z,2.07
2017-12-03T00:48:59.600Z,2.09
2017-12-03T00:51:27.160Z,1.94
2017-12-03T00:53:54.721Z,2.03
2017-12-03T00:56:22.300Z,1.98
2017-12-03T00:58:50.000Z,2.01
2017-12-03T01:01:18.346Z,2.16
2017-12-03T01:03:45.908Z,2.01
2017-12-03T01:06:13.468Z,1.98
2017-12-03T01:08:41.028Z,1.96
2017-12-03T01:11:08.584Z,2.12
2017-12-03T01:13:36.173Z,2.00
2017-12-03T01:16:03.789Z,1.86
2017-12-03T01:18:31.352Z,1.73
2017-12-03T01:20:59.643Z,1.69
2017-12-03T01:23:27.209Z,1.53
2017-12-03T01:25:54.775Z,1.42
2017-12-03T01:28:23.068Z,1.28
2017-12-03T01:30:50.628Z,1.20
2017-12-03T01:33:18.188Z,1.03
2017-12-03T01:35:45.749Z,1.00
2017-12-03T01:38:13.316Z,0.89
2017-12-03T01:40:40.869Z,0.78
2017-12-03T01:43:08.437Z,0.69
2017-12-03T01:45:36.001Z,0.63
2017-12-03T01:48:03.561Z,0.55
2017-12-03T01:50:31.132Z,0.46
2017-12-03T01:52:58.740Z,0.38
2017-12-03T01:55:26.298Z,0.29
2017-12-03T01:57:53.860Z,0.27
2017-12-03T02:00:21.432Z,0.19
2017-12-03T02:02:48.993Z,0.14
2017-12-03T02:05:16.569Z,0.07
2017-12-03T02:07:44.136Z,0.00
2017-12-03T02:10:11.720Z,-0.08
2017-12-03T02:12:39.293Z,-0.10
2017-12-03T02:15:06.856Z,0.03
2017-12-03T02:17:34.480Z,-0.09
2017-12-03T02:20:02.056Z,-0.03
2017-12-03T02:22:29.632Z,-0.14
2017-12-03T02:24:57.208Z,-0.12
2017-12-03T02:27:24.793Z,-0.13
2017-12-03T02:29:52.364Z,-0.18
2017-12-03T02:32:19.932Z,-0.19
2017-12-03T02:34:47.503Z,-0.16
2017-12-03T02:37:15.074Z,-0.22
2017-12-03T02:39:43.459Z,-0.20
2017-12-03T02:42:12.212Z,-0.26
2017-12-03T02:44:39.780Z,-0.29
2017-12-03T02:47:07.352Z,-0.28
2017-12-03T02:49:34.924Z,-0.29
2017-12-03T02:52:02.496Z,-0.32
2017-12-03T02:54:30.068Z,-0.31
2017-12-03T02:56:57.641Z,-0.33
2017-12-03T02:59:25.209Z,-0.40
2017-12-03T03:01:52.787Z,-0.38
2017-12-03T03:04:20.356Z,-0.34
2017-12-03T03:06:47.917Z,-0.29
2017-12-03T03:09:15.537Z,-0.25
2017-12-03T03:11:43.112Z,-0.18
2017-12-03T03:14:10.683Z,-0.09
2017-12-03T03:16:38.252Z,-0.08
2017-12-03T03:19:05.819Z,0.05
2017-12-03T03:21:33.385Z,0.16
2017-12-03T03:24:00.948Z,0.37
2017-12-03T03:26:28.512Z,0.40
2017-12-03T03:28:56.987Z,0.44
2017-12-03T03:31:24.583Z,0.50
2017-12-03T03:33:53.052Z,0.49
2017-12-03T03:36:20.661Z,0.61
2017-12-03T03:38:48.287Z,0.59
2017-12-03T03:41:15.856Z,0.52
2017-12-03T03:43:43.432Z,0.54
2017-12-03T03:46:10.992Z,0.61
2017-12-03T03:48:38.839Z,0.70
2017-12-03T03:51:06.495Z,0.74
2017-12-03T03:53:34.961Z,0.86
2017-12-03T03:56:02.528Z,0.77
2017-12-03T03:58:30.866Z,0.82
2017-12-03T04:00:58.442Z,0.82
2017-12-03T04:03:26.826Z,0.87
2017-12-03T04:05:54.399Z,0.92
2017-12-03T04:08:21.982Z,0.89
2017-12-03T04:10:49.552Z,0.98
2017-12-03T04:13:17.112Z,1.02
2017-12-03T04:15:44.672Z,1.05
2017-12-03T04:18:12.234Z,0.96
2017-12-03T04:20:39.808Z,0.89
2017-12-03T04:23:07.372Z,0.93
2017-12-03T04:25:34.974Z,0.89
2017-12-03T04:28:02.592Z,1.03
2017-12-03T04:30:31.076Z,1.19
2017-12-03T04:32:58.640Z,1.22
2017-12-03T04:35:26.196Z,1.11
2017-12-03T04:37:53.776Z,1.08
2017-12-03T04:40:21.335Z,1.24
2017-12-03T04:42:49.658Z,1.16
2017-12-03T04:45:17.232Z,1.03
2017-12-03T04:47:45.715Z,1.10
2017-12-03T04:50:13.299Z,1.17
2017-12-03T04:52:40.868Z,1.18
2017-12-03T04:55:08.423Z,1.23
2017-12-03T04:57:35.982Z,1.20
2017-12-03T05:00:04.364Z,1.06
2017-12-03T05:02:31.936Z,0.97
2017-12-03T05:05:00.276Z,0.81
2017-12-03T05:07:27.879Z,0.81
2017-12-03T05:09:56.220Z,0.68
2017-12-03T05:12:23.781Z,0.52
2017-12-03T05:14:51.348Z,0.36
2017-12-03T05:17:19.716Z,0.26
2017-12-03T05:19:47.276Z,0.27
2017-12-03T05:22:15.696Z,0.12
2017-12-03T05:24:43.261Z,0.07
2017-12-03T05:27:10.824Z,0.04
2017-12-03T05:29:38.387Z,0.05
2017-12-03T05:32:05.965Z,0.03
2017-12-03T05:34:34.328Z,-0.06
2017-12-03T05:37:01.927Z,-0.10
2017-12-03T05:39:29.500Z,-0.06
2017-12-03T05:41:57.086Z,-0.16
2017-12-03T05:44:24.664Z,-0.22
2017-12-03T05:46:52.252Z,-0.10
2017-12-03T05:49:19.848Z,-0.24
2017-12-03T05:51:48.227Z,-0.15
2017-12-03T05:54:15.798Z,-0.24
2017-12-03T05:56:44.180Z,-0.14
2017-12-03T05:59:12.547Z,-0.13
2017-12-03T06:01:40.128Z,-0.05
2017-12-03T06:04:08.616Z,-0.08
2017-12-03T06:06:36.223Z,-0.17
2017-12-03T06:09:03.836Z,-0.23
2017-12-03T06:11:31.412Z,-0.15
2017-12-03T06:13:59.000Z,-0.28
2017-12-03T06:19:00.412Z,-0.43
2017-12-03T06:21:27.978Z,-0.57
2017-12-03T06:23:56.349Z,-0.56
2017-12-03T06:26:24.736Z,-0.74
2017-12-03T06:28:52.319Z,-0.82
2017-12-03T06:31:20.844Z,-0.82
2017-12-03T06:33:48.415Z,-0.83
2017-12-03T06:36:16.103Z,-0.86
2017-12-03T06:38:43.760Z,-0.83
2017-12-03T06:41:11.495Z,-0.88
2017-12-03T06:43:39.139Z,-0.89
2017-12-03T06:46:06.722Z,-0.95
2017-12-03T06:48:34.289Z,-0.96
2017-12-03T06:51:01.860Z,-0.88
2017-12-03T06:53:29.428Z,-0.96
2017-12-03T06:55:57.063Z,-0.85
2017-12-03T06:58:24.633Z,-0.87
2017-12-03T07:00:52.212Z,-0.89
2017-12-03T07:03:19.884Z,-0.87
2017-12-03T07:05:47.537Z,-0.97
2017-12-03T07:08:15.104Z,-0.95
2017-12-03T07:10:42.672Z,-0.94
2017-12-03T07:13:10.276Z,-0.97
2017-12-03T07:15:37.851Z,-0.92
2017-12-03T07:18:05.467Z,-0.86
2017-12-03T07:20:33.107Z,-0.88
2017-12-03T07:23:00.680Z,-0.89
2017-12-03T07:25:28.252Z,-0.87
2017-12-03T07:27:56.597Z,-0.84
2017-12-03T07:30:24.882Z,-0.87
2017-12-03T07:32:53.225Z,-0.79
2017-12-03T07:35:21.492Z,-0.79
2017-12-03T07:37:49.767Z,-0.84
2017-12-03T07:40:18.039Z,-0.83
2017-12-03T07:42:46.548Z,-0.79
2017-12-03T07:45:14.117Z,-0.74
2017-12-03T07:47:41.712Z,-0.70
2017-12-03T07:50:09.304Z,-0.62
2017-12-03T07:52:36.875Z,-0.65
2017-12-03T07:55:04.450Z,-0.67
2017-12-03T07:57:32.117Z,-0.54
2017-12-03T07:59:59.756Z,-0.59
2017-12-03T08:02:27.334Z,-0.45
2017-12-03T08:04:54.904Z,-0.44
2017-12-03T08:07:22.473Z,-0.44
2017-12-03T08:09:50.048Z,-0.43
2017-12-03T08:12:17.619Z,-0.41
2017-12-03T08:14:45.223Z,-0.31
2017-12-03T08:17:12.791Z,-0.28
2017-12-03T08:19:40.367Z,-0.26
2017-12-03T08:22:07.936Z,-0.23
2017-12-03T08:24:36.321Z,-0.29
2017-12-03T08:27:03.897Z,-0.04
2017-12-03T08:29:31.499Z,-0.03
2017-12-03T08:31:59.108Z,-0.01
2017-12-03T08:34:26.679Z,-0.03
2017-12-03T08:36:54.249Z,-0.09
2017-12-03T08:39:21.873Z,-0.06
2017-12-03T08:41:49.434Z,-0.05
2017-12-03T08:44:17.016Z,0.10
2017-12-03T08:46:44.580Z,0.13
2017-12-03T08:49:12.137Z,0.16
2017-12-03T08:51:39.740Z,0.26
2017-12-03T08:54:07.333Z,0.23
2017-12-03T08:56:35.171Z,0.32
2017-12-03T08:59:02.742Z,0.38
2017-12-03T09:01:31.225Z,0.42
2017-12-03T09:03:59.625Z,0.49
2017-12-03T09:06:27.234Z,0.59
2017-12-03T09:08:54.851Z,0.60
2017-12-03T09:11:22.420Z,0.69
2017-12-03T09:13:50.737Z,0.67
2017-12-03T09:16:19.077Z,0.65
2017-12-03T09:18:47.487Z,0.72
2017-12-03T09:21:15.052Z,0.81
2017-12-03T09:23:42.644Z,0.90
2017-12-03T09:26:10.200Z,0.99
2017-12-03T09:28:37.794Z,1.00
2017-12-03T09:31:05.356Z,1.10
2017-12-03T09:33:32.947Z,1.13
2017-12-03T09:36:00.615Z,1.17
2017-12-03T09:38:28.227Z,1.26
2017-12-03T09:40:55.832Z,1.25
2017-12-03T09:43:23.429Z,1.35
2017-12-03T09:45:51.138Z,1.46
2017-12-03T09:48:19.801Z,1.51
2017-12-03T09:50:47.384Z,1.73
2017-12-03T09:53:15.113Z,1.70
2017-12-03T09:55:43.551Z,1.70
2017-12-03T09:58:12.583Z,1.93
2017-12-03T10:00:41.921Z,1.91
2017-12-03T10:03:10.472Z,1.89
2017-12-03T10:05:38.035Z,2.01
2017-12-03T10:08:05.636Z,2.05
2017-12-03T10:10:34.007Z,2.00
2017-12-03T10:13:02.636Z,2.14
2017-12-03T10:15:30.896Z,2.13
2017-12-03T10:17:59.288Z,2.08
2017-12-03T10:20:27.648Z,2.12
2017-12-03T10:22:55.920Z,2.26
2017-12-03T10:25:23.477Z,2.43
2017-12-03T10:27:51.125Z,2.40
2017-12-03T10:30:18.701Z,2.34
2017-12-03T10:32:46.595Z,2.40
2017-12-03T10:35:14.632Z,2.45
2017-12-03T10:37:56.177Z,2.56
2017-12-03T10:40:24.444Z,2.63
2017-12-03T10:42:52.580Z,2.70
2017-12-03T10:45:21.091Z,2.68
2017-12-03T10:47:49.406Z,2.66
2017-12-03T10:50:16.987Z,2.58
2017-12-03T10:52:44.630Z,2.84
2017-12-03T10:55:12.228Z,2.85
2017-12-03T10:57:40.828Z,2.83
2017-12-03T11:00:08.463Z,2.90
2017-12-03T11:02:36.022Z,2.94
2017-12-03T11:05:03.585Z,2.91
2017-12-03T11:07:31.676Z,2.96
2017-12-03T11:10:00.268Z,3.05
2017-12-03T11:12:28.723Z,3.07
2017-12-03T11:14:56.402Z,2.98
2017-12-03T11:17:23.920Z,3.08
2017-12-03T11:19:51.537Z,3.05
2017-12-03T11:22:21.976Z,3.10
2017-12-03T11:24:51.095Z,3.13
2017-12-03T11:27:18.660Z,3.17
2017-12-03T11:29:46.219Z,3.22
2017-12-03T11:32:13.796Z,3.21
2017-12-03T11:34:41.357Z,3.15
2017-12-03T11:37:08.920Z,3.16
2017-12-03T11:39:37.152Z,3.22
2017-12-03T11:42:04.854Z,3.14
2017-12-03T11:44:32.528Z,3.05
2017-12-03T11:47:00.142Z,3.10
2017-12-03T11:49:27.744Z,3.04
2017-12-03T11:51:55.329Z,3.10
2017-12-03T11:54:22.884Z,3.11
2017-12-03T11:56:50.685Z,2.95
2017-12-03T11:59:19.365Z,2.93
2017-12-03T12:01:47.794Z,2.70
2017-12-03T12:04:15.432Z,2.81
2017-12-03T12:06:43.152Z,2.79
2017-12-03T12:09:10.766Z,2.75
2017-12-03T12:11:38.506Z,2.81
2017-12-03T12:14:06.137Z,2.92
2017-12-03T12:16:33.732Z,2.99
2017-12-03T12:19:01.400Z,3.07
2017-12-03T12:21:29.611Z,3.08
2017-12-03T12:23:57.842Z,3.10
2017-12-03T12:26:25.826Z,3.11
2017-12-03T12:28:53.477Z,3.03
2017-12-03T12:31:21.960Z,3.05
2017-12-03T12:33:49.791Z,2.97
2017-12-03T12:36:18.293Z,3.09
2017-12-03T12:38:45.979Z,3.10
2017-12-03T12:41:13.641Z,3.06
2017-12-03T12:43:41.884Z,2.90
2017-12-03T12:46:09.542Z,2.76
2017-12-03T12:48:37.124Z,2.79
2017-12-03T12:51:05.580Z,2.77
2017-12-03T12:53:53.598Z,2.83
2017-12-03T12:56:21.250Z,2.85
2017-12-03T12:58:48.813Z,2.86
2017-12-03T13:01:17.113Z,2.67
2017-12-03T13:03:44.682Z,2.83
2017-12-03T13:06:13.051Z,2.82
2017-12-03T13:08:41.408Z,2.79
2017-12-03T13:11:08.966Z,2.85
2017-12-03T13:13:36.565Z,2.83
2017-12-03T13:16:04.132Z,2.99
2017-12-03T13:18:31.700Z,2.84
2017-12-03T13:20:59.261Z,2.88
2017-12-03T13:23:26.858Z,2.72
2017-12-03T13:25:54.529Z,2.66
2017-12-03T13:28:22.944Z,2.79
2017-12-03T13:30:50.504Z,2.77
2017-12-03T13:33:18.061Z,2.74
2017-12-03T13:35:46.617Z,2.66
2017-12-03T13:38:14.188Z,2.64
2017-12-03T13:40:41.768Z,2.58
2017-12-03T13:43:09.351Z,2.70
2017-12-03T13:45:37.809Z,2.69
2017-12-03T13:48:05.370Z,2.68
2017-12-03T13:50:44.187Z,2.59
2017-12-03T13:53:13.315Z,2.53
2017-12-03T13:55:43.128Z,2.48
2017-12-03T13:58:13.579Z,2.39
2017-12-03T14:03:31.409Z,2.35
2017-12-03T14:05:59.247Z,2.39
2017-12-03T14:08:26.810Z,2.37
2017-12-03T14:10:57.868Z,2.30
2017-12-03T14:13:25.500Z,2.21
2017-12-03T14:15:53.116Z,2.30
2017-12-03T14:18:20.675Z,2.31
2017-12-03T14:20:50.497Z,2.31
2017-12-03T14:23:26.293Z,2.21
2017-12-03T14:25:53.884Z,2.23
2017-12-03T14:28:22.129Z,2.27
2017-12-03T14:30:49.713Z,2.23
2017-12-03T14:33:17.274Z,2.19
2017-12-03T14:35:44.864Z,2.14
2017-12-03T14:38:12.424Z,2.11
2017-12-03T14:40:39.984Z,2.16
2017-12-03T14:43:07.550Z,2.26
2017-12-03T14:45:35.147Z,2.20
2017-12-03T14:48:02.712Z,2.12
2017-12-03T14:50:30.277Z,2.28
2017-12-03T14:52:57.883Z,2.17
2017-12-03T14:55:25.442Z,2.09
2017-12-03T14:57:53.038Z,2.05
2017-12-03T15:00:20.596Z,2.02
2017-12-03T15:02:48.161Z,2.07
2017-12-03T15:05:15.796Z,2.19
2017-12-03T15:07:43.360Z,2.13
2017-12-03T15:10:11.803Z,2.13
2017-12-03T15:12:39.369Z,2.11
2017-12-03T15:15:06.938Z,2.11
2017-12-03T15:17:34.523Z,2.14
2017-12-03T15:20:02.189Z,2.22
2017-12-03T15:22:29.751Z,2.15
2017-12-03T15:24:57.314Z,2.10
2017-12-03T15:27:25.603Z,2.04
2017-12-03T15:29:54.068Z,2.10
2017-12-03T15:32:21.625Z,2.02
2017-12-03T15:34:49.285Z,1.95
2017-12-03T15:37:17.532Z,1.95
2017-12-03T15:39:45.101Z,1.93
2017-12-03T15:42:12.668Z,1.91
2017-12-03T15:44:40.238Z,1.81
2017-12-03T15:47:08.632Z,1.84
2017-12-03T15:49:36.193Z,1.92
2017-12-03T15:52:03.759Z,1.86
2017-12-03T15:54:32.127Z,1.84
2017-12-03T15:56:59.733Z,1.81
2017-12-03T15:59:27.310Z,1.86
2017-12-03T16:01:55.673Z,1.76
2017-12-03T16:04:23.236Z,1.88
2017-12-03T16:06:50.805Z,1.88
2017-12-03T16:09:18.376Z,1.74
2017-12-03T16:11:45.927Z,1.75
2017-12-03T16:14:22.315Z,1.71
2017-12-03T16:16:49.884Z,1.69
2017-12-03T16:19:17.563Z,1.74
2017-12-03T16:21:45.455Z,1.74
2017-12-03T16:24:13.407Z,1.73
2017-12-03T16:26:41.647Z,1.76
2017-12-03T16:29:09.387Z,1.72
2017-12-03T16:31:37.008Z,1.76
2017-12-03T16:34:04.576Z,1.70
2017-12-03T16:36:32.236Z,1.73
2017-12-03T16:38:59.844Z,1.75
2017-12-03T16:41:27.426Z,1.71
2017-12-03T16:43:54.989Z,1.53
2017-12-03T16:46:22.553Z,1.57
2017-12-03T16:48:50.143Z,1.54
2017-12-03T16:51:17.704Z,1.57
2017-12-03T16:53:45.355Z,1.52
2017-12-03T16:56:12.918Z,1.51
2017-12-03T16:58:40.488Z,1.50
2017-12-03T17:01:08.052Z,1.53
2017-12-03T17:03:35.708Z,1.49
2017-12-03T17:06:03.660Z,1.45
2017-12-03T17:08:31.487Z,1.45
2017-12-03T17:10:59.111Z,1.49
2017-12-03T17:13:26.794Z,1.47
2017-12-03T17:16:06.396Z,1.41
2017-12-03T17:18:35.119Z,1.46
2017-12-03T17:21:04.326Z,1.51
2017-12-03T17:23:42.156Z,1.56
2017-12-03T17:26:17.256Z,1.56
2017-12-03T17:28:49.233Z,1.66
2017-12-03T17:31:17.005Z,1.66
2017-12-03T17:33:44.664Z,1.70
2017-12-03T17:36:12.299Z,1.68
2017-12-03T17:38:39.884Z,1.65
2017-12-03T17:41:07.796Z,1.67
2017-12-03T17:43:35.397Z,1.64
2017-12-03T17:46:02.992Z,1.65
2017-12-03T17:48:30.650Z,1.66
2017-12-03T17:50:58.212Z,1.70
2017-12-03T17:53:25.785Z,1.63
2017-12-03T17:55:54.181Z,1.65
2017-12-03T17:58:21.752Z,1.61
2017-12-03T18:00:49.380Z,1.52
2017-12-03T18:03:17.319Z,1.70
2017-12-03T18:05:44.944Z,1.59
2017-12-03T18:08:12.544Z,1.48
2017-12-03T18:10:40.105Z,1.55
2017-12-03T18:13:08.594Z,1.63
2017-12-03T18:15:36.168Z,1.72
2017-12-03T18:18:06.057Z,1.75
2017-12-03T18:20:33.664Z,1.66
2017-12-03T18:23:01.310Z,1.67
2017-12-03T18:25:28.886Z,1.61
2017-12-03T18:27:56.577Z,1.56
2017-12-03T18:30:24.197Z,1.61
2017-12-03T18:32:51.866Z,1.54
2017-12-03T18:35:19.440Z,1.58
2017-12-03T18:37:47.014Z,1.60
2017-12-03T18:40:15.688Z,1.56
2017-12-03T18:42:43.272Z,1.57
2017-12-03T18:45:10.849Z,1.56
2017-12-03T18:47:38.416Z,1.67
2017-12-03T18:50:05.986Z,1.62
2017-12-03T18:52:33.644Z,1.61
2017-12-03T18:55:01.208Z,1.62
2017-12-03T18:57:28.772Z,1.64
2017-12-03T18:59:56.531Z,1.68
2017-12-03T19:02:24.104Z,1.66
2017-12-03T19:04:51.694Z,1.57
2017-12-03T19:07:19.303Z,1.60
2017-12-03T19:09:46.877Z,1.63
2017-12-03T19:12:14.577Z,1.66
2017-12-03T19:14:43.059Z,1.59
2017-12-03T19:17:10.678Z,1.70
2017-12-03T19:19:41.537Z,1.69
2017-12-03T19:22:20.962Z,1.75
2017-12-03T19:25:01.055Z,1.79
2017-12-03T19:27:40.461Z,1.84
2017-12-03T19:32:49.929Z,1.89
2017-12-03T19:35:34.316Z,1.83
2017-12-03T19:38:08.392Z,1.78
2017-12-03T19:40:39.794Z,1.80
2017-12-03T19:43:15.070Z,1.71
2017-12-03T19:46:09.285Z,1.72
2017-12-03T19:48:58.206Z,1.83
2017-12-03T19:51:44.456Z,1.83
2017-12-03T19:57:08.616Z,1.76
2017-12-03T19:59:36.185Z,1.79
2017-12-03T20:02:03.753Z,2.00
2017-12-03T20:04:31.436Z,2.03
2017-12-03T20:06:59.000Z,2.00
2017-12-03T20:09:26.571Z,2.02
2017-12-03T20:11:54.145Z,2.02
2017-12-03T20:14:22.804Z,2.03
2017-12-03T20:16:50.447Z,2.00
2017-12-03T20:19:19.670Z,2.03
2017-12-03T20:21:47.377Z,2.08
2017-12-03T20:24:15.300Z,2.09
2017-12-03T20:26:43.676Z,1.98
2017-12-03T20:29:11.947Z,2.06
2017-12-03T20:31:40.161Z,2.05
2017-12-03T20:34:09.332Z,2.13
2017-12-03T20:36:36.893Z,2.09
2017-12-03T20:39:07.362Z,2.00
2017-12-03T20:41:36.794Z,2.03
2017-12-03T20:44:09.118Z,2.06
2017-12-03T20:46:36.743Z,2.19
2017-12-03T20:49:05.023Z,2.18
2017-12-03T20:51:33.873Z,2.06
2017-12-03T20:54:01.964Z,2.08
2017-12-03T20:56:31.287Z,2.16
2017-12-03T20:59:00.891Z,2.11
2017-12-03T21:01:32.585Z,2.09
2017-12-03T21:04:00.333Z,2.10
2017-12-03T21:06:29.696Z,2.06
2017-12-03T21:08:57.484Z,2.07
2017-12-03T21:11:29.317Z,2.05
2017-12-03T21:14:03.234Z,1.94
2017-12-03T21:16:33.968Z,1.95
2017-12-03T21:19:06.142Z,1.97
2017-12-03T21:21:34.665Z,2.03
2017-12-03T21:24:02.814Z,1.97
2017-12-03T21:26:31.337Z,2.14
2017-12-03T21:29:00.065Z,2.14
2017-12-03T21:31:30.529Z,2.14
2017-12-03T21:33:59.202Z,2.13
2017-12-03T21:36:27.665Z,2.12
2017-12-03T21:38:55.231Z,2.23
2017-12-03T21:41:23.701Z,2.30
2017-12-03T21:43:51.917Z,2.36
2017-12-03T21:46:19.664Z,2.23
2017-12-03T21:48:47.284Z,2.25
2017-12-03T21:51:15.733Z,2.34
2017-12-03T21:53:43.304Z,2.31
2017-12-03T21:56:10.884Z,2.35
2017-12-03T21:58:39.495Z,2.38
2017-12-03T22:01:07.919Z,2.35
2017-12-03T22:03:35.489Z,2.27
2017-12-03T22:06:03.109Z,2.21
2017-12-03T22:08:30.712Z,2.25
2017-12-03T22:10:58.373Z,2.38
2017-12-03T22:13:25.992Z,2.38
2017-12-03T22:15:53.557Z,2.36
2017-12-03T22:18:21.156Z,2.26
2017-12-03T22:20:48.736Z,2.26
2017-12-03T22:23:16.340Z,2.25
2017-12-03T22:25:43.932Z,2.37
2017-12-03T22:28:12.292Z,2.32
2017-12-03T22:30:39.852Z,2.39
2017-12-03T22:33:08.330Z,2.46
2017-12-03T22:35:35.904Z,2.55
2017-12-03T22:38:03.577Z,2.54
2017-12-03T22:40:31.251Z,2.57
2017-12-03T22:42:58.820Z,2.68
2017-12-03T22:45:27.272Z,2.57
2017-12-03T22:47:54.844Z,2.66
2017-12-03T22:50:22.478Z,2.73
2017-12-03T22:52:50.085Z,2.83
2017-12-03T22:55:17.658Z,2.77
2017-12-03T22:57:45.220Z,2.80
2017-12-03T23:00:12.856Z,2.73
2017-12-03T23:02:40.423Z,2.77
2017-12-03T23:05:07.996Z,2.83
2017-12-03T23:07:35.604Z,2.77
2017-12-03T23:10:03.235Z,2.76
2017-12-03T23:12:30.805Z,2.62
2017-12-03T23:14:59.292Z,2.67
2017-12-03T23:17:26.860Z,2.84
2017-12-03T23:19:54.428Z,2.84
2017-12-03T23:22:22.032Z,2.85
2017-12-03T23:24:50.233Z,2.91
2017-12-03T23:27:18.711Z,2.86
2017-12-03T23:29:47.073Z,2.98
2017-12-03T23:32:15.563Z,3.01
2017-12-03T23:34:43.132Z,3.01
2017-12-03T23:37:10.740Z,3.02
2017-12-03T23:39:38.364Z,3.06
2017-12-03T23:42:06.003Z,3.12
2017-12-03T23:44:34.509Z,3.17
2017-12-03T23:47:02.110Z,3.17
2017-12-03T23:49:30.519Z,3.12
2017-12-03T23:51:58.855Z,3.26
2017-12-03T23:54:27.215Z,3.34
2017-12-03T23:56:54.810Z,3.24
2017-12-03T23:59:22.369Z,3.36
